Time;durP1;ratioP1;P1;durP2;ratioP2;P2;SDS_P1;SDS_P2;PMS_P1;PMS_P2;Temp;Humidity;BMP_temperature;BMP_pressure;BME280_temperature;BME280_humidity;BME280_pressure;Samples;Min_cycle;Max_cycle;Signal;HPM_P1;HPM_P2
2023/06/16 00:01:41;;;;;;;15.90;10.50;;;;;;;-128.00;-1.00;-1.00;103221;1259;1002938;-63
2023/06/16 00:04:09;;;;;;;15.80;10.50;;;;;;;-128.00;-1.00;-1.00;103205;1258;1004423;-62
2023/06/16 00:06:37;;;;;;;13.70;10.00;;;;;;;-128.00;-1.00;-1.00;103238;1258;1003565;-63
2023/06/16 00:09:04;;;;;;;14.30;9.90;;;;;;;-128.00;-1.00;-1.00;103212;1257;1002970;-64
2023/06/16 00:11:33;;;;;;;16.70;10.10;;;;;;;-128.00;-1.00;-1.00;103209;1259;1002823;-64
2023/06/16 00:14:00;;;;;;;17.50;10.20;;;;;;;-128.00;-1.00;-1.00;103144;1254;1011416;-62
2023/06/16 00:16:27;;;;;;;18.40;10.90;;;;;;;-128.00;-1.00;-1.00;103207;1258;1004245;-63
2023/06/16 00:18:57;;;;;;;14.20;10.20;;;;;;;-128.00;-1.00;-1.00;103215;1253;1003216;-62
2023/06/16 00:21:27;;;;;;;;;;;;;;;-128.00;-1.00;-1.00;103189;1253;1012395;-62
2023/06/16 00:23:55;;;;;;;15.40;10.10;;;;;;;-128.00;-1.00;-1.00;103227;1259;1009583;-62
2023/06/16 00:26:23;;;;;;;14.90;10.60;;;;;;;-128.00;-1.00;-1.00;103199;1256;1002105;-62
2023/06/16 00:28:50;;;;;;;14.70;10.00;;;;;;;-128.00;-1.00;-1.00;103191;1259;1014280;-62
2023/06/16 00:31:18;;;;;;;13.50;9.90;;;;;;;-128.00;-1.00;-1.00;103196;1253;1004223;-62
2023/06/16 00:33:45;;;;;;;14.60;9.70;;;;;;;-128.00;-1.00;-1.00;103198;1258;1003150;-62
2023/06/16 00:36:12;;;;;;;12.40;9.60;;;;;;;-128.00;-1.00;-1.00;103168;1256;1003306;-62
2023/06/16 00:38:39;;;;;;;11.70;9.10;;;;;;;-128.00;-1.00;-1.00;103154;1255;1002749;-63
2023/06/16 00:41:07;;;;;;;12.70;9.00;;;;;;;-128.00;-1.00;-1.00;103184;1256;1002782;-62
2023/06/16 00:43:34;;;;;;;12.40;8.60;;;;;;;-128.00;-1.00;-1.00;103166;1253;1004166;-62
2023/06/16 00:46:01;;;;;;;14.00;9.00;;;;;;;-128.00;-1.00;-1.00;103146;1259;1002788;-63
2023/06/16 00:48:28;;;;;;;12.00;9.60;;;;;;;-128.00;-1.00;-1.00;103191;1257;1003495;-64
2023/06/16 00:50:59;;;;;;;17.00;9.80;;;;;;;-128.00;-1.00;-1.00;103150;1254;1004553;-61
2023/06/16 00:53:26;;;;;;;13.10;9.90;;;;;;;-128.00;-1.00;-1.00;103205;1259;1013679;-61
2023/06/16 00:55:53;;;;;;;12.60;9.60;;;;;;;-128.00;-1.00;-1.00;103159;1258;1004968;-62
2023/06/16 00:58:21;;;;;;;15.40;10.00;;;;;;;-128.00;-1.00;-1.00;103195;1254;1002748;-62
2023/06/16 01:00:49;;;;;;;12.60;9.90;;;;;;;-128.00;-1.00;-1.00;103071;1267;1002864;-62
2023/06/16 01:03:17;;;;;;;14.40;10.00;;;;;;;-128.00;-1.00;-1.00;103031;1255;1011073;-62
2023/06/16 01:05:44;;;;;;;15.10;10.00;;;;;;;-128.00;-1.00;-1.00;103089;1259;1005227;-63
2023/06/16 01:08:18;;;;;;;12.90;9.40;;;;;;;-128.00;-1.00;-1.00;103027;1254;1004835;-63
2023/06/16 01:11:05;;;;;;;13.80;9.70;;;;;;;-128.00;-1.00;-1.00;103104;1259;1013209;-63
2023/06/16 01:13:38;;;;;;;14.10;9.90;;;;;;;-128.00;-1.00;-1.00;103197;1257;1010755;-63
2023/06/16 01:16:07;;;;;;;17.90;11.30;;;;;;;-128.00;-1.00;-1.00;103128;1253;1012536;-62
2023/06/16 01:18:39;;;;;;;15.40;10.30;;;;;;;-128.00;-1.00;-1.00;103168;1259;1013300;-62
2023/06/16 01:21:16;;;;;;;14.10;10.40;;;;;;;-128.00;-1.00;-1.00;103170;1257;1012757;-63
2023/06/16 01:24:07;;;;;;;15.00;10.80;;;;;;;-128.00;-1.00;-1.00;103149;1258;1013580;-63
2023/06/16 01:26:44;;;;;;;15.40;11.10;;;;;;;-128.00;-1.00;-1.00;103146;1253;1010119;-63
2023/06/16 01:29:13;;;;;;;17.00;11.50;;;;;;;-128.00;-1.00;-1.00;103151;1254;1011695;-63
2023/06/16 01:31:42;;;;;;;16.50;12.10;;;;;;;-128.00;-1.00;-1.00;103180;1254;1012987;-63
2023/06/16 01:34:12;;;;;;;17.80;11.30;;;;;;;-128.00;-1.00;-1.00;103152;1257;1011628;-62
2023/06/16 01:36:41;;;;;;;18.40;12.00;;;;;;;-128.00;-1.00;-1.00;103139;1254;1012797;-61
2023/06/16 01:39:11;;;;;;;15.80;11.70;;;;;;;-128.00;-1.00;-1.00;103173;1257;1009558;-61
2023/06/16 01:41:38;;;;;;;14.70;11.80;;;;;;;-128.00;-1.00;-1.00;103198;1259;1011069;-63
2023/06/16 01:44:06;;;;;;;16.70;11.90;;;;;;;-128.00;-1.00;-1.00;103151;1255;1003392;-64
2023/06/16 01:46:34;;;;;;;15.10;11.20;;;;;;;-128.00;-1.00;-1.00;103177;1259;1004297;-61
2023/06/16 01:49:01;;;;;;;16.40;11.50;;;;;;;-128.00;-1.00;-1.00;103181;1259;1002774;-62
2023/06/16 01:51:29;;;;;;;17.10;12.50;;;;;;;-128.00;-1.00;-1.00;103180;1258;1002808;-63
2023/06/16 01:53:56;;;;;;;15.30;11.80;;;;;;;-128.00;-1.00;-1.00;103186;1257;1003644;-62
2023/06/16 01:56:23;;;;;;;16.40;11.80;;;;;;;-128.00;-1.00;-1.00;103161;1253;1003240;-65
2023/06/16 01:58:50;;;;;;;17.30;12.50;;;;;;;-128.00;-1.00;-1.00;103159;1255;1004191;-63
2023/06/16 02:01:30;;;;;;;17.00;12.40;;;;;;;-128.00;-1.00;-1.00;103161;1255;1003937;-62
2023/06/16 02:04:19;;;;;;;17.70;12.00;;;;;;;-128.00;-1.00;-1.00;103172;1255;1010101;-62
2023/06/16 02:06:59;;;;;;;16.20;11.40;;;;;;;-128.00;-1.00;-1.00;103139;1266;1011250;-63
2023/06/16 02:09:30;;;;;;;18.80;12.40;;;;;;;-128.00;-1.00;-1.00;103140;1258;1013455;-62
2023/06/16 02:11:57;;;;;;;17.50;11.90;;;;;;;-128.00;-1.00;-1.00;103151;1258;1012855;-62
2023/06/16 02:14:27;;;;;;;15.80;11.40;;;;;;;-128.00;-1.00;-1.00;103129;1257;1004801;-62
2023/06/16 02:16:54;;;;;;;18.40;12.00;;;;;;;-128.00;-1.00;-1.00;103146;1254;1009781;-62
2023/06/16 02:19:22;;;;;;;16.30;11.50;;;;;;;-128.00;-1.00;-1.00;103098;1266;1002523;-62
2023/06/16 02:21:49;;;;;;;18.30;11.20;;;;;;;-128.00;-1.00;-1.00;103146;1257;1002788;-63
2023/06/16 02:24:16;;;;;;;17.90;11.40;;;;;;;-128.00;-1.00;-1.00;103165;1259;1004390;-62
2023/06/16 02:26:43;;;;;;;17.40;11.70;;;;;;;-128.00;-1.00;-1.00;103160;1260;1002724;-63
2023/06/16 02:29:10;;;;;;;16.60;11.90;;;;;;;-128.00;-1.00;-1.00;103168;1257;1002911;-63
2023/06/16 02:31:38;;;;;;;17.80;10.90;;;;;;;-128.00;-1.00;-1.00;103217;1255;1002242;-62
2023/06/16 02:34:05;;;;;;;16.60;10.80;;;;;;;-128.00;-1.00;-1.00;103140;1254;1003131;-63
2023/06/16 02:36:33;;;;;;;18.80;12.30;;;;;;;-128.00;-1.00;-1.00;103112;1255;1002565;-63
2023/06/16 02:39:00;;;;;;;33.20;17.20;;;;;;;-128.00;-1.00;-1.00;103189;1253;1002702;-63
2023/06/16 02:41:27;;;;;;;24.10;13.80;;;;;;;-128.00;-1.00;-1.00;103159;1254;1004558;-63
2023/06/16 02:43:54;;;;;;;26.60;16.20;;;;;;;-128.00;-1.00;-1.00;103137;1257;1004770;-63
2023/06/16 02:46:22;;;;;;;28.00;15.50;;;;;;;-128.00;-1.00;-1.00;103135;1253;1002504;-63
2023/06/16 02:48:49;;;;;;;28.50;16.10;;;;;;;-128.00;-1.00;-1.00;103171;1253;1002417;-63
2023/06/16 02:51:17;;;;;;;21.70;13.90;;;;;;;-128.00;-1.00;-1.00;103140;1259;1003240;-63
2023/06/16 02:53:47;;;;;;;20.80;14.10;;;;;;;-128.00;-1.00;-1.00;103156;1254;1002656;-62
2023/06/16 02:56:14;;;;;;;30.10;16.80;;;;;;;-128.00;-1.00;-1.00;103125;1257;1012109;-63
2023/06/16 02:58:41;;;;;;;27.70;15.50;;;;;;;-128.00;-1.00;-1.00;103105;1254;1004459;-63
2023/06/16 03:01:08;;;;;;;25.10;14.40;;;;;;;-128.00;-1.00;-1.00;103110;1254;1002937;-63
2023/06/16 03:03:36;;;;;;;25.30;15.70;;;;;;;-128.00;-1.00;-1.00;103080;1258;1002648;-63
2023/06/16 03:06:04;;;;;;;24.60;15.00;;;;;;;-128.00;-1.00;-1.00;103115;1254;1010371;-63
2023/06/16 03:08:32;;;;;;;22.60;15.50;;;;;;;-128.00;-1.00;-1.00;103087;1257;1002833;-63
2023/06/16 03:10:59;;;;;;;23.50;14.60;;;;;;;-128.00;-1.00;-1.00;102988;1254;1004285;-62
2023/06/16 03:13:26;;;;;;;21.90;14.60;;;;;;;-128.00;-1.00;-1.00;102988;1257;1004766;-62
2023/06/16 03:15:57;;;;;;;21.50;13.90;;;;;;;-128.00;-1.00;-1.00;103092;1254;1003283;-64
2023/06/16 03:18:24;;;;;;;17.80;13.20;;;;;;;-128.00;-1.00;-1.00;102964;1254;1009152;-63
2023/06/16 03:20:51;;;;;;;16.40;13.10;;;;;;;-128.00;-1.00;-1.00;103134;1257;1003045;-65
2023/06/16 03:23:18;;;;;;;18.80;13.50;;;;;;;-128.00;-1.00;-1.00;103137;1254;1003020;-64
2023/06/16 03:25:46;;;;;;;20.30;13.40;;;;;;;-128.00;-1.00;-1.00;103165;1254;1002936;-64
2023/06/16 03:28:13;;;;;;;19.00;13.20;;;;;;;-128.00;-1.00;-1.00;103136;1257;1004683;-64
2023/06/16 03:30:41;;;;;;;18.10;13.70;;;;;;;-128.00;-1.00;-1.00;103124;1257;1003400;-64
2023/06/16 03:33:08;;;;;;;19.60;13.40;;;;;;;-128.00;-1.00;-1.00;103107;1257;1003171;-64
2023/06/16 03:35:35;;;;;;;19.70;13.80;;;;;;;-128.00;-1.00;-1.00;103150;1254;1002650;-64
2023/06/16 03:38:02;;;;;;;22.50;13.90;;;;;;;-128.00;-1.00;-1.00;103117;1254;1002588;-63
2023/06/16 03:40:30;;;;;;;19.10;14.10;;;;;;;-128.00;-1.00;-1.00;103165;1255;1002575;-63
2023/06/16 03:42:57;;;;;;;21.60;13.90;;;;;;;-128.00;-1.00;-1.00;103098;1259;1002478;-63
2023/06/16 03:45:25;;;;;;;19.60;14.60;;;;;;;-128.00;-1.00;-1.00;103185;1257;1002177;-64
2023/06/16 03:47:52;;;;;;;22.20;14.00;;;;;;;-128.00;-1.00;-1.00;103150;1257;1003019;-63
2023/06/16 03:50:19;;;;;;;18.50;13.80;;;;;;;-128.00;-1.00;-1.00;103150;1258;1002371;-63
2023/06/16 03:52:47;;;;;;;20.50;13.80;;;;;;;-128.00;-1.00;-1.00;103149;1258;1003167;-64
2023/06/16 03:55:23;;;;;;;21.00;15.40;;;;;;;-128.00;-1.00;-1.00;103148;1257;1010860;-63
2023/06/16 03:57:50;;;;;;;23.80;15.40;;;;;;;-128.00;-1.00;-1.00;103138;1257;1002461;-65
2023/06/16 04:00:18;;;;;;;24.00;15.30;;;;;;;-128.00;-1.00;-1.00;103108;1257;1004512;-64
2023/06/16 04:02:46;;;;;;;24.50;15.50;;;;;;;-128.00;-1.00;-1.00;103204;1257;1011739;-63
2023/06/16 04:05:13;;;;;;;26.50;14.60;;;;;;;-128.00;-1.00;-1.00;103170;1254;1002854;-63
2023/06/16 04:07:40;;;;;;;19.90;13.50;;;;;;;-128.00;-1.00;-1.00;103189;1254;1004182;-63
2023/06/16 04:10:08;;;;;;;22.10;15.10;;;;;;;-128.00;-1.00;-1.00;103140;1257;1002587;-63
2023/06/16 04:12:35;;;;;;;22.60;14.20;;;;;;;-128.00;-1.00;-1.00;103198;1253;1004234;-63
2023/06/16 04:15:04;;;;;;;22.50;14.40;;;;;;;-128.00;-1.00;-1.00;103033;1254;1003650;-63
2023/06/16 04:17:31;;;;;;;21.60;14.20;;;;;;;-128.00;-1.00;-1.00;103144;1253;1013048;-62
2023/06/16 04:19:58;;;;;;;21.30;14.20;;;;;;;-128.00;-1.00;-1.00;103119;1257;1002059;-62
2023/06/16 04:22:25;;;;;;;22.00;14.20;;;;;;;-128.00;-1.00;-1.00;103151;1254;1004722;-62
2023/06/16 04:24:53;;;;;;;22.70;14.30;;;;;;;-128.00;-1.00;-1.00;103146;1254;1002891;-62
2023/06/16 04:27:22;;;;;;;20.70;14.90;;;;;;;-128.00;-1.00;-1.00;103106;1253;1002449;-62
2023/06/16 04:29:50;;;;;;;24.80;15.80;;;;;;;-128.00;-1.00;-1.00;102972;1257;1012360;-62
2023/06/16 04:32:17;;;;;;;22.90;15.30;;;;;;;-128.00;-1.00;-1.00;103154;1257;1002850;-62
2023/06/16 04:34:44;;;;;;;21.00;14.50;;;;;;;-128.00;-1.00;-1.00;103140;1253;1002673;-62
2023/06/16 04:37:13;;;;;;;20.50;14.70;;;;;;;-128.00;-1.00;-1.00;103239;1254;1004367;-63
2023/06/16 04:39:40;;;;;;;20.60;14.60;;;;;;;-128.00;-1.00;-1.00;103190;1254;1011742;-63
2023/06/16 04:42:09;;;;;;;25.40;15.30;;;;;;;-128.00;-1.00;-1.00;103118;1254;1004596;-63
2023/06/16 04:44:37;;;;;;;17.10;13.00;;;;;;;-128.00;-1.00;-1.00;103161;1253;1010319;-63
2023/06/16 04:47:04;;;;;;;17.70;13.70;;;;;;;-128.00;-1.00;-1.00;103072;1257;1002545;-63
2023/06/16 04:49:31;;;;;;;19.10;13.20;;;;;;;-128.00;-1.00;-1.00;102999;1254;1003077;-64
2023/06/16 04:51:58;;;;;;;20.80;13.60;;;;;;;-128.00;-1.00;-1.00;103122;1254;1003694;-63
2023/06/16 04:54:26;;;;;;;17.20;11.90;;;;;;;-128.00;-1.00;-1.00;103110;1253;1002474;-63
2023/06/16 04:56:53;;;;;;;13.30;10.30;;;;;;;-128.00;-1.00;-1.00;103115;1257;1002967;-63
2023/06/16 04:59:20;;;;;;;14.50;10.80;;;;;;;-128.00;-1.00;-1.00;103188;1254;1003864;-64
2023/06/16 05:01:50;;;;;;;16.00;11.10;;;;;;;-128.00;-1.00;-1.00;103179;1254;1013895;-62
2023/06/16 05:04:17;;;;;;;18.40;11.60;;;;;;;-128.00;-1.00;-1.00;103204;1254;1003152;-62
2023/06/16 05:06:46;;;;;;;19.30;11.50;;;;;;;-128.00;-1.00;-1.00;103143;1254;1002768;-62
2023/06/16 05:09:21;;;;;;;15.30;11.40;;;;;;;-128.00;-1.00;-1.00;103106;1257;1009172;-62
2023/06/16 05:11:48;;;;;;;14.80;12.00;;;;;;;-128.00;-1.00;-1.00;103132;1258;1002428;-62
2023/06/16 05:14:15;;;;;;;14.00;11.30;;;;;;;-128.00;-1.00;-1.00;103172;1257;1002192;-61
2023/06/16 05:16:42;;;;;;;15.90;11.30;;;;;;;-128.00;-1.00;-1.00;103143;1254;1002687;-62
2023/06/16 05:19:10;;;;;;;17.50;12.00;;;;;;;-128.00;-1.00;-1.00;103088;1257;1002680;-62
2023/06/16 05:21:37;;;;;;;17.10;11.80;;;;;;;-128.00;-1.00;-1.00;102923;1253;1002615;-61
2023/06/16 05:24:05;;;;;;;17.20;11.70;;;;;;;-128.00;-1.00;-1.00;102956;1254;1002276;-62
2023/06/16 05:26:32;;;;;;;17.00;10.90;;;;;;;-128.00;-1.00;-1.00;103007;1253;1002524;-63
2023/06/16 05:29:00;;;;;;;14.80;10.00;;;;;;;-128.00;-1.00;-1.00;102996;1257;1002794;-66
2023/06/16 05:31:28;;;;;;;14.20;10.70;;;;;;;-128.00;-1.00;-1.00;103126;1254;1003128;-66
2023/06/16 05:33:56;;;;;;;19.50;10.30;;;;;;;-128.00;-1.00;-1.00;103136;1257;1010197;-64
2023/06/16 05:36:28;;;;;;;13.20;10.00;;;;;;;-128.00;-1.00;-1.00;103126;1256;1002866;-64
2023/06/16 05:38:56;;;;;;;13.50;9.10;;;;;;;-128.00;-1.00;-1.00;103160;1259;1013477;-65
2023/06/16 05:41:26;;;;;;;14.40;10.60;;;;;;;-128.00;-1.00;-1.00;103127;1253;1002617;-66
2023/06/16 05:43:57;;;;;;;19.20;9.80;;;;;;;-128.00;-1.00;-1.00;103064;1253;1013684;-64
2023/06/16 05:46:23;;;;;;;;;;;;;;;-128.00;-1.00;-1.00;102917;1257;1009621;-65
2023/06/16 05:48:51;;;;;;;14.80;9.50;;;;;;;-128.00;-1.00;-1.00;103098;1254;1004155;-64
2023/06/16 05:51:18;;;;;;;11.90;9.10;;;;;;;-128.00;-1.00;-1.00;103119;1253;1003075;-67
2023/06/16 05:53:46;;;;;;;17.60;9.70;;;;;;;-128.00;-1.00;-1.00;103136;1254;1001981;-64
2023/06/16 05:56:13;;;;;;;14.00;8.70;;;;;;;-128.00;-1.00;-1.00;103051;1254;1002547;-64
2023/06/16 05:58:40;;;;;;;12.60;8.60;;;;;;;-128.00;-1.00;-1.00;102995;1253;1003045;-64
2023/06/16 06:01:07;;;;;;;10.20;7.80;;;;;;;-128.00;-1.00;-1.00;102907;1253;1004223;-64
2023/06/16 06:03:35;;;;;;;10.40;8.30;;;;;;;-128.00;-1.00;-1.00;102952;1253;1004175;-67
2023/06/16 06:06:03;;;;;;;9.20;7.20;;;;;;;-128.00;-1.00;-1.00;103048;1257;1002833;-64
2023/06/16 06:08:30;;;;;;;10.20;6.80;;;;;;;-128.00;-1.00;-1.00;103113;1254;1002476;-71
2023/06/16 06:11:01;;;;;;;8.80;6.50;;;;;;;-128.00;-1.00;-1.00;103125;1257;1002625;-63
2023/06/16 06:13:28;;;;;;;9.20;6.90;;;;;;;-128.00;-1.00;-1.00;103147;1257;1010970;-64
2023/06/16 06:15:56;;;;;;;9.00;6.00;;;;;;;-128.00;-1.00;-1.00;103117;1254;1002252;-64
2023/06/16 06:18:24;;;;;;;7.70;5.20;;;;;;;-128.00;-1.00;-1.00;103121;1253;1005228;-64
2023/06/16 06:20:51;;;;;;;11.80;6.20;;;;;;;-128.00;-1.00;-1.00;103137;1254;1002938;-64
2023/06/16 06:23:19;;;;;;;7.90;5.80;;;;;;;-128.00;-1.00;-1.00;103096;1253;1003261;-65
2023/06/16 06:25:47;;;;;;;9.80;5.40;;;;;;;-128.00;-1.00;-1.00;103163;1257;1002351;-64
2023/06/16 06:28:14;;;;;;;10.30;5.60;;;;;;;-128.00;-1.00;-1.00;103056;1257;1002856;-65
2023/06/16 06:30:41;;;;;;;10.50;5.50;;;;;;;-128.00;-1.00;-1.00;103046;1255;1002296;-64
2023/06/16 06:33:09;;;;;;;5.90;4.60;;;;;;;-128.00;-1.00;-1.00;102984;1253;1002927;-64
2023/06/16 06:35:36;;;;;;;8.20;4.90;;;;;;;-128.00;-1.00;-1.00;103172;1255;1002918;-64
2023/06/16 06:38:04;;;;;;;6.90;5.20;;;;;;;-128.00;-1.00;-1.00;103106;1253;1002729;-64
2023/06/16 06:40:32;;;;;;;7.80;4.70;;;;;;;-128.00;-1.00;-1.00;103147;1256;1013487;-64
2023/06/16 06:42:59;;;;;;;7.80;5.20;;;;;;;-128.00;-1.00;-1.00;103119;1254;1004217;-64
2023/06/16 06:45:26;;;;;;;7.10;4.70;;;;;;;-128.00;-1.00;-1.00;103132;1253;1003269;-64
2023/06/16 06:47:54;;;;;;;6.60;4.00;;;;;;;-128.00;-1.00;-1.00;103141;1255;1002615;-65
2023/06/16 06:50:22;;;;;;;5.90;4.00;;;;;;;-128.00;-1.00;-1.00;103147;1254;1002826;-64
2023/06/16 06:52:50;;;;;;;6.00;4.20;;;;;;;-128.00;-1.00;-1.00;103156;1257;1003180;-65
2023/06/16 06:55:18;;;;;;;5.50;3.40;;;;;;;-128.00;-1.00;-1.00;103182;1254;1004191;-65
2023/06/16 06:57:47;;;;;;;4.90;3.60;;;;;;;-128.00;-1.00;-1.00;103140;1254;1012713;-65
2023/06/16 07:00:15;;;;;;;6.20;3.30;;;;;;;-128.00;-1.00;-1.00;103140;1253;1010042;-63
2023/06/16 07:02:43;;;;;;;5.80;3.60;;;;;;;-128.00;-1.00;-1.00;102780;1257;1010915;-64
2023/06/16 07:05:11;;;;;;;5.90;3.80;;;;;;;-128.00;-1.00;-1.00;103137;1257;1002924;-64
2023/06/16 07:07:38;;;;;;;5.80;4.10;;;;;;;-128.00;-1.00;-1.00;103215;1253;1002580;-64
2023/06/16 07:10:06;;;;;;;7.90;4.20;;;;;;;-128.00;-1.00;-1.00;103108;1253;1002931;-62
2023/06/16 07:12:33;;;;;;;5.20;4.30;;;;;;;-128.00;-1.00;-1.00;103206;1255;1002738;-64
2023/06/16 07:15:01;;;;;;;7.00;4.50;;;;;;;-128.00;-1.00;-1.00;103017;1257;1002949;-65
2023/06/16 07:17:30;;;;;;;7.30;4.80;;;;;;;-128.00;-1.00;-1.00;103077;1257;1002387;-66
2023/06/16 07:19:57;;;;;;;8.30;5.20;;;;;;;-128.00;-1.00;-1.00;103072;1253;1012528;-65
2023/06/16 07:22:24;;;;;;;7.80;4.90;;;;;;;-128.00;-1.00;-1.00;103146;1254;1002664;-65
2023/06/16 07:24:51;;;;;;;8.30;4.90;;;;;;;-128.00;-1.00;-1.00;102975;1257;1002853;-64
2023/06/16 07:27:18;;;;;;;6.80;4.70;;;;;;;-128.00;-1.00;-1.00;103009;1253;1002358;-68
2023/06/16 07:29:46;;;;;;;7.50;4.60;;;;;;;-128.00;-1.00;-1.00;102965;1255;1002685;-70
2023/06/16 07:32:13;;;;;;;6.60;3.90;;;;;;;-128.00;-1.00;-1.00;103129;1254;1002235;-66
2023/06/16 07:34:41;;;;;;;6.30;3.90;;;;;;;-128.00;-1.00;-1.00;103100;1254;1004223;-65
2023/06/16 07:37:08;;;;;;;4.70;3.60;;;;;;;-128.00;-1.00;-1.00;103172;1253;1002766;-65
2023/06/16 07:39:36;;;;;;;7.40;3.80;;;;;;;-128.00;-1.00;-1.00;103183;1257;1002591;-65
2023/06/16 07:42:04;;;;;;;5.50;3.70;;;;;;;-128.00;-1.00;-1.00;103139;1253;1002910;-65
2023/06/16 07:44:31;;;;;;;5.70;3.80;;;;;;;-128.00;-1.00;-1.00;103034;1253;1004526;-65
2023/06/16 07:46:58;;;;;;;7.70;3.10;;;;;;;-128.00;-1.00;-1.00;103143;1253;1002845;-64
2023/06/16 07:49:26;;;;;;;4.20;3.10;;;;;;;-128.00;-1.00;-1.00;103173;1257;1004293;-65
2023/06/16 07:51:53;;;;;;;4.50;3.40;;;;;;;-128.00;-1.00;-1.00;103146;1253;1002747;-65
2023/06/16 07:54:20;;;;;;;5.30;2.90;;;;;;;-128.00;-1.00;-1.00;103162;1257;1002712;-64
2023/06/16 07:56:50;;;;;;;4.20;2.90;;;;;;;-128.00;-1.00;-1.00;102975;1253;1002740;-65
2023/06/16 07:59:17;;;;;;;3.70;2.90;;;;;;;-128.00;-1.00;-1.00;103151;1253;1012724;-65
2023/06/16 08:01:45;;;;;;;5.00;2.90;;;;;;;-128.00;-1.00;-1.00;103155;1253;1002959;-65
2023/06/16 08:04:12;;;;;;;5.30;3.00;;;;;;;-128.00;-1.00;-1.00;103109;1253;1002612;-65
2023/06/16 08:06:40;;;;;;;3.40;2.70;;;;;;;-128.00;-1.00;-1.00;103133;1254;1003123;-65
2023/06/16 08:09:14;;;;;;;3.70;2.50;;;;;;;-128.00;-1.00;-1.00;103151;1253;1002356;-62
2023/06/16 08:11:42;;;;;;;3.10;2.80;;;;;;;-128.00;-1.00;-1.00;103155;1253;1012370;-65
2023/06/16 08:14:14;;;;;;;4.80;3.10;;;;;;;-128.00;-1.00;-1.00;103175;1257;1004518;-65
2023/06/16 08:16:45;;;;;;;3.40;2.90;;;;;;;-128.00;-1.00;-1.00;103155;1253;1011098;-65
2023/06/16 08:19:19;;;;;;;3.80;2.90;;;;;;;-128.00;-1.00;-1.00;103137;1253;1013630;-65
2023/06/16 08:21:46;;;;;;;4.10;2.90;;;;;;;-128.00;-1.00;-1.00;103145;1253;1002598;-65
2023/06/16 08:24:14;;;;;;;5.10;3.20;;;;;;;-128.00;-1.00;-1.00;103148;1257;1002529;-64
2023/06/16 08:26:44;;;;;;;10.90;4.50;;;;;;;-128.00;-1.00;-1.00;103122;1258;1003121;-65
2023/06/16 08:29:12;;;;;;;7.10;3.50;;;;;;;-128.00;-1.00;-1.00;103121;1253;1011424;-64
2023/06/16 08:31:40;;;;;;;5.00;3.10;;;;;;;-128.00;-1.00;-1.00;103164;1253;1013502;-64
2023/06/16 08:34:07;;;;;;;3.70;3.30;;;;;;;-128.00;-1.00;-1.00;103097;1254;1002919;-64
2023/06/16 08:36:34;;;;;;;5.60;2.90;;;;;;;-128.00;-1.00;-1.00;103148;1256;1002868;-65
2023/06/16 08:39:02;;;;;;;3.90;2.70;;;;;;;-128.00;-1.00;-1.00;103018;1255;1003158;-64
2023/06/16 08:41:30;;;;;;;4.60;3.10;;;;;;;-128.00;-1.00;-1.00;102957;1255;1002409;-64
2023/06/16 08:44:01;;;;;;;4.00;3.30;;;;;;;-128.00;-1.00;-1.00;103077;1257;1012412;-65
2023/06/16 08:46:28;;;;;;;4.90;2.90;;;;;;;-128.00;-1.00;-1.00;103086;1253;1014552;-65
2023/06/16 08:48:56;;;;;;;3.60;3.20;;;;;;;-128.00;-1.00;-1.00;103123;1257;1002693;-65
2023/06/16 08:51:26;;;;;;;4.60;3.20;;;;;;;-128.00;-1.00;-1.00;103118;1253;1003039;-65
2023/06/16 08:54:00;;;;;;;4.10;3.50;;;;;;;-128.00;-1.00;-1.00;103011;1257;1011463;-69
2023/06/16 08:56:32;;;;;;;3.70;3.00;;;;;;;-128.00;-1.00;-1.00;103188;1257;1012449;-64
2023/06/16 08:59:01;;;;;;;4.90;3.40;;;;;;;-128.00;-1.00;-1.00;103113;1253;1011943;-63
2023/06/16 09:01:30;;;;;;;3.70;3.10;;;;;;;-128.00;-1.00;-1.00;103175;1253;1013441;-64
2023/06/16 09:03:58;;;;;;;4.90;3.40;;;;;;;-128.00;-1.00;-1.00;103164;1257;1010568;-64
2023/06/16 09:06:25;;;;;;;3.90;3.20;;;;;;;-128.00;-1.00;-1.00;104332;1253;1002741;-64
2023/06/16 09:08:53;;;;;;;6.30;3.20;;;;;;;-128.00;-1.00;-1.00;103161;1253;1002831;-64
2023/06/16 09:11:26;;;;;;;3.30;3.00;;;;;;;-128.00;-1.00;-1.00;103142;1253;1002282;-64
2023/06/16 09:13:54;;;;;;;4.40;3.70;;;;;;;-128.00;-1.00;-1.00;103115;1253;1012767;-64
2023/06/16 09:16:21;;;;;;;3.70;3.40;;;;;;;-128.00;-1.00;-1.00;102994;1257;1003347;-64
2023/06/16 09:18:49;;;;;;;6.10;3.60;;;;;;;-128.00;-1.00;-1.00;103048;1253;1002659;-64
2023/06/16 09:21:23;;;;;;;5.80;3.40;;;;;;;-128.00;-1.00;-1.00;103143;1253;1002281;-63
2023/06/16 09:23:58;;;;;;;3.80;3.20;;;;;;;-128.00;-1.00;-1.00;103141;1254;1012212;-64
2023/06/16 09:26:30;;;;;;;3.80;2.90;;;;;;;-128.00;-1.00;-1.00;103111;1258;1002796;-64
2023/06/16 09:28:57;;;;;;;4.60;2.80;;;;;;;-128.00;-1.00;-1.00;103169;1257;1011340;-64
2023/06/16 09:31:28;;;;;;;4.50;2.90;;;;;;;-128.00;-1.00;-1.00;103116;1257;1004211;-64
2023/06/16 09:34:06;;;;;;;4.80;3.10;;;;;;;-128.00;-1.00;-1.00;103144;1257;1013409;-64
2023/06/16 09:36:33;;;;;;;3.50;3.10;;;;;;;-128.00;-1.00;-1.00;103155;1253;1012869;-64
2023/06/16 09:39:00;;;;;;;4.50;3.10;;;;;;;-128.00;-1.00;-1.00;103047;1253;1002366;-65
2023/06/16 09:41:32;;;;;;;3.60;3.00;;;;;;;-128.00;-1.00;-1.00;103006;1257;1002335;-64
2023/06/16 09:44:00;;;;;;;3.50;2.80;;;;;;;-128.00;-1.00;-1.00;103041;1257;1011667;-63
2023/06/16 09:46:29;;;;;;;4.00;3.10;;;;;;;-128.00;-1.00;-1.00;103080;1257;1002310;-64
2023/06/16 09:48:56;;;;;;;4.60;2.80;;;;;;;-128.00;-1.00;-1.00;103088;1253;1012956;-64
2023/06/16 09:51:23;;;;;;;4.10;3.00;;;;;;;-128.00;-1.00;-1.00;102906;1253;1002609;-64
2023/06/16 09:53:53;;;;;;;3.60;2.70;;;;;;;-128.00;-1.00;-1.00;103115;1257;1002982;-64
2023/06/16 09:56:20;;;;;;;5.70;3.10;;;;;;;-128.00;-1.00;-1.00;103167;1258;1010563;-64
2023/06/16 09:58:47;;;;;;;3.80;2.70;;;;;;;-128.00;-1.00;-1.00;103228;1254;1002876;-64
2023/06/16 10:01:17;;;;;;;3.90;2.70;;;;;;;-128.00;-1.00;-1.00;103188;1256;1002463;-63
2023/06/16 10:03:48;;;;;;;3.00;2.70;;;;;;;-128.00;-1.00;-1.00;103082;1253;1013495;-63
2023/06/16 10:06:21;;;;;;;3.30;2.60;;;;;;;-128.00;-1.00;-1.00;102968;1253;1010610;-64
2023/06/16 10:08:49;;;;;;;3.90;2.50;;;;;;;-128.00;-1.00;-1.00;103022;1257;1010877;-64
2023/06/16 10:11:18;;;;;;;4.00;2.60;;;;;;;-128.00;-1.00;-1.00;103045;1257;1013746;-65
2023/06/16 10:13:54;;;;;;;3.40;2.70;;;;;;;-128.00;-1.00;-1.00;103127;1253;1012039;-66
2023/06/16 10:16:27;;;;;;;3.20;2.60;;;;;;;-128.00;-1.00;-1.00;103046;1257;1012958;-71
2023/06/16 10:19:00;;;;;;;4.60;2.90;;;;;;;-128.00;-1.00;-1.00;103128;1253;1010116;-63
2023/06/16 10:21:27;;;;;;;4.90;3.00;;;;;;;-128.00;-1.00;-1.00;103106;1258;1011408;-64
2023/06/16 10:23:55;;;;;;;3.60;2.90;;;;;;;-128.00;-1.00;-1.00;103144;1253;1003128;-64
2023/06/16 10:26:22;;;;;;;3.70;3.00;;;;;;;-128.00;-1.00;-1.00;103041;1256;1002528;-64
2023/06/16 10:28:51;;;;;;;3.30;2.70;;;;;;;-128.00;-1.00;-1.00;103139;1256;1002823;-64
2023/06/16 10:31:19;;;;;;;3.40;2.50;;;;;;;-128.00;-1.00;-1.00;103153;1253;1010694;-64
2023/06/16 10:33:53;;;;;;;3.40;3.10;;;;;;;-128.00;-1.00;-1.00;103088;1253;1010395;-64
2023/06/16 10:36:39;;;;;;;3.90;2.70;;;;;;;-128.00;-1.00;-1.00;102954;1253;1012932;-63
2023/06/16 10:39:12;;;;;;;4.00;2.80;;;;;;;-128.00;-1.00;-1.00;103071;1253;1012174;-64
2023/06/16 10:41:54;;;;;;;3.10;2.80;;;;;;;-128.00;-1.00;-1.00;103112;1253;1013045;-64
2023/06/16 10:44:28;;;;;;;2.90;2.50;;;;;;;-128.00;-1.00;-1.00;103150;1253;1009773;-63
2023/06/16 10:47:04;;;;;;;2.80;2.60;;;;;;;-128.00;-1.00;-1.00;103057;1253;1011061;-62
2023/06/16 10:49:32;;;;;;;3.40;2.80;;;;;;;-128.00;-1.00;-1.00;103140;1254;1013474;-63
2023/06/16 10:52:01;;;;;;;3.40;2.80;;;;;;;-128.00;-1.00;-1.00;103110;1254;1002404;-63
2023/06/16 10:54:44;;;;;;;4.30;2.70;;;;;;;-128.00;-1.00;-1.00;103141;1253;1013473;-64
2023/06/16 10:57:12;;;;;;;4.40;2.80;;;;;;;-128.00;-1.00;-1.00;103159;1253;1009935;-63
2023/06/16 10:59:54;;;;;;;;;;;;;;;-128.00;-1.00;-1.00;103173;1253;1011994;-64
2023/06/16 11:02:27;;;;;;;4.70;2.50;;;;;;;-128.00;-1.00;-1.00;103076;1253;1013050;-64
2023/06/16 11:05:09;;;;;;;2.90;2.60;;;;;;;-128.00;-1.00;-1.00;102998;1257;1011905;-63
2023/06/16 11:07:46;;;;;;;4.40;2.70;;;;;;;-128.00;-1.00;-1.00;103016;1253;1013430;-63
2023/06/16 11:10:18;;;;;;;3.20;2.90;;;;;;;-128.00;-1.00;-1.00;103098;1253;1010043;-63
2023/06/16 11:12:47;;;;;;;4.70;2.70;;;;;;;-128.00;-1.00;-1.00;103118;1253;1012553;-64
2023/06/16 11:15:14;;;;;;;3.20;2.60;;;;;;;-128.00;-1.00;-1.00;103157;1253;1002094;-64
2023/06/16 11:17:47;;;;;;;2.90;2.60;;;;;;;-128.00;-1.00;-1.00;103138;1257;1002855;-64